Time;durP1;ratioP1;P1;durP2;ratioP2;P2;SDS_P1;SDS_P2;PMS_P1;PMS_P2;Temp;Humidity;BMP_temperature;BMP_pressure;BME280_temperature;BME280_humidity;BME280_pressure;Samples;Min_cycle;Max_cycle;Signal;HPM_P1;HPM_P2
2022/03/18 00:00:24;;;;;;;8.05;3.55;;;6.80;62.40;;;;;;5115561;28;20024;-68
2022/03/18 00:02:54;;;;;;;6.03;3.20;;;6.80;62.50;;;;;;5115616;28;20020;-68
2022/03/18 00:05:21;;;;;;;6.68;3.30;;;6.60;62.40;;;;;;5115528;28;20024;-68
2022/03/18 00:07:47;;;;;;;5.95;3.75;;;6.60;62.60;;;;;;5115457;28;20020;-68
2022/03/18 00:10:14;;;;;;;7.20;3.67;;;6.60;62.60;;;;;;5115233;28;20102;-68
2022/03/18 00:12:40;;;;;;;7.70;3.88;;;6.60;62.70;;;;;;5115336;28;20103;-68
2022/03/18 00:15:08;;;;;;;8.25;4.50;;;6.60;62.70;;;;;;5115271;28;20035;-68
2022/03/18 00:17:34;;;;;;;11.32;4.53;;;6.70;62.60;;;;;;5115412;28;20016;-68
2022/03/18 00:19:59;;;;;;;7.80;4.00;;;6.70;62.20;;;;;;5115213;28;20020;-68
2022/03/18 00:22:25;;;;;;;11.40;4.03;;;6.50;61.70;;;;;;5097317;28;20075;-68
2022/03/18 00:24:51;;;;;;;7.57;3.67;;;6.20;62.30;;;;;;5115041;28;20048;-68
2022/03/18 00:27:16;;;;;;;8.93;4.15;;;6.20;62.70;;;;;;5115083;28;20096;-68
2022/03/18 00:29:42;;;;;;;12.40;3.88;;;6.30;62.60;;;;;;5115030;28;20032;-68
2022/03/18 00:32:08;;;;;;;6.63;3.65;;;6.30;62.50;;;;;;5114974;28;20027;-68
2022/03/18 00:34:34;;;;;;;7.32;3.80;;;6.40;62.00;;;;;;5114853;28;20028;-68
2022/03/18 00:37:00;;;;;;;9.52;4.13;;;6.40;62.00;;;;;;5114898;28;20028;-65
2022/03/18 00:39:26;;;;;;;12.57;4.20;;;6.30;62.00;;;;;;5114902;28;20016;-67
2022/03/18 00:41:51;;;;;;;8.95;3.88;;;6.30;62.20;;;;;;5114782;28;20046;-68
2022/03/18 00:44:17;;;;;;;7.90;4.28;;;6.30;62.30;;;;;;5114733;28;20058;-68
2022/03/18 00:46:43;;;;;;;9.05;4.38;;;6.30;62.30;;;;;;5114695;28;20023;-68
2022/03/18 00:52:04;;;;;;;12.57;4.72;;;6.30;62.60;;;;;;5114856;28;20059;-68
2022/03/18 00:54:31;;;;;;;7.68;4.30;;;6.10;62.90;;;;;;5114627;28;20035;-68
2022/03/18 00:56:57;;;;;;;8.82;4.20;;;6.20;63.00;;;;;;5114485;28;20036;-68
2022/03/18 00:59:22;;;;;;;7.90;3.83;;;6.20;62.90;;;;;;5114490;28;20033;-68
2022/03/18 01:01:52;;;;;;;8.63;4.10;;;6.00;63.10;;;;;;5114438;28;20028;-68
2022/03/18 01:04:19;;;;;;;8.40;4.50;;;5.80;63.60;;;;;;5114385;28;20084;-68
2022/03/18 01:06:45;;;;;;;10.73;4.15;;;6.00;63.70;;;;;;5114310;28;20024;-65
2022/03/18 01:09:11;;;;;;;8.07;4.35;;;5.90;63.00;;;;;;5114166;28;20044;-67
2022/03/18 01:11:36;;;;;;;7.15;3.88;;;5.90;63.20;;;;;;5114063;28;20074;-68
2022/03/18 01:14:02;;;;;;;7.70;3.70;;;5.90;63.00;;;;;;5114198;28;20080;-68
2022/03/18 01:16:28;;;;;;;6.95;3.75;;;5.70;63.00;;;;;;5114068;28;20023;-68
2022/03/18 01:18:53;;;;;;;13.35;4.07;;;5.60;63.30;;;;;;5114099;28;20046;-68
2022/03/18 01:21:19;;;;;;;6.85;3.95;;;5.40;63.40;;;;;;5114063;28;20141;-68
2022/03/18 01:23:46;;;;;;;8.98;4.13;;;5.30;63.90;;;;;;5113977;28;20027;-68
2022/03/18 01:26:11;;;;;;;7.97;3.97;;;5.30;64.10;;;;;;5096123;28;20030;-68
2022/03/18 01:28:37;;;;;;;7.45;3.47;;;5.40;64.10;;;;;;5113938;28;20515;-66
2022/03/18 01:31:03;;;;;;;12.02;4.40;;;5.20;64.30;;;;;;5113876;28;20032;-68
2022/03/18 01:33:28;;;;;;;8.05;4.60;;;5.30;64.70;;;;;;5113866;28;20035;-68
2022/03/18 01:35:54;;;;;;;10.55;4.30;;;5.40;64.50;;;;;;5113736;28;20036;-68
2022/03/18 01:38:19;;;;;;;9.73;4.85;;;5.50;64.50;;;;;;5113769;28;20054;-68
2022/03/18 01:40:45;;;;;;;8.55;4.43;;;5.50;64.30;;;;;;5113753;28;20031;-68
2022/03/18 01:43:11;;;;;;;8.60;4.05;;;5.50;64.30;;;;;;5113676;28;20036;-68
2022/03/18 01:45:38;;;;;;;9.60;4.47;;;5.50;64.30;;;;;;5113650;28;20024;-68
2022/03/18 01:48:05;;;;;;;9.25;4.60;;;5.60;64.20;;;;;;5113639;28;20110;-68
2022/03/18 01:50:31;;;;;;;12.90;4.43;;;5.40;64.20;;;;;;5113635;28;20133;-68
2022/03/18 01:52:57;;;;;;;8.20;4.05;;;5.40;64.60;;;;;;5113568;28;20028;-68
2022/03/18 01:55:24;;;;;;;8.82;4.10;;;5.40;64.60;;;;;;5113576;28;20091;-68
2022/03/18 01:57:51;;;;;;;7.80;3.65;;;5.50;64.60;;;;;;5113511;28;20046;-68
2022/03/18 02:00:21;;;;;;;9.20;3.63;;;5.20;64.10;;;;;;5113494;28;20032;-68
2022/03/18 02:02:47;;;;;;;6.50;3.88;;;5.10;64.50;;;;;;5113489;28;20030;-68
2022/03/18 02:05:13;;;;;;;7.50;3.85;;;5.20;64.80;;;;;;5113422;28;20058;-68
2022/03/18 02:07:39;;;;;;;8.80;3.63;;;5.30;64.60;;;;;;5113406;28;20044;-68
2022/03/18 02:10:07;;;;;;;10.15;3.72;;;5.30;64.50;;;;;;5113193;28;20047;-68
2022/03/18 02:12:32;;;;;;;10.38;3.92;;;5.10;64.90;;;;;;5113348;28;20059;-68
2022/03/18 02:14:58;;;;;;;9.38;3.90;;;5.10;65.30;;;;;;5113260;28;20021;-68
2022/03/18 02:17:24;;;;;;;10.70;3.80;;;5.10;65.00;;;;;;5095405;28;20028;-68
2022/03/18 02:19:49;;;;;;;10.02;4.20;;;4.90;65.40;;;;;;5113277;28;20016;-68
2022/03/18 02:22:22;;;;;;;8.68;3.95;;;4.70;65.30;;;;;;5115671;28;20028;-68
2022/03/18 02:24:49;;;;;;;;;;;4.60;66.10;;;;;;5117852;28;20042;-68
2022/03/18 02:27:14;;;;;;;7.47;3.45;;;4.60;66.20;;;;;;5117399;28;19908;-68
2022/03/18 02:29:42;;;;;;;9.90;3.60;;;4.70;66.50;;;;;;5117379;28;20036;-68
2022/03/18 02:32:09;;;;;;;6.78;4.13;;;4.70;66.60;;;;;;5117307;28;20027;-68
2022/03/18 02:34:36;;;;;;;10.77;4.20;;;4.80;66.30;;;;;;5117194;28;20031;-68
2022/03/18 02:37:02;;;;;;;9.52;4.38;;;4.90;65.90;;;;;;5117240;28;20080;-68
2022/03/18 02:39:28;;;;;;;9.18;4.45;;;5.00;66.20;;;;;;5117183;28;20020;-66
2022/03/18 02:41:53;;;;;;;9.45;4.30;;;4.80;65.40;;;;;;5117140;28;20032;-66
2022/03/18 02:44:19;;;;;;;7.95;4.50;;;4.80;65.50;;;;;;5117105;28;20024;-65
2022/03/18 02:46:45;;;;;;;8.25;5.00;;;4.90;65.30;;;;;;5117070;28;20017;-65
2022/03/18 02:49:11;;;;;;;7.25;4.20;;;4.80;65.00;;;;;;5116966;28;20455;-65
2022/03/18 02:51:37;;;;;;;10.32;4.82;;;4.70;65.30;;;;;;5117076;28;20024;-65
2022/03/18 02:54:07;;;;;;;12.43;4.40;;;4.80;65.50;;;;;;5116906;28;20095;-66
2022/03/18 02:56:33;;;;;;;10.02;4.40;;;4.90;65.70;;;;;;5116806;28;20035;-65
2022/03/18 02:59:02;;;;;;;8.93;4.45;;;4.80;65.70;;;;;;5116804;28;20017;-68
2022/03/18 03:01:30;;;;;;;8.13;4.25;;;4.80;65.90;;;;;;5116761;28;20020;-68
2022/03/18 03:03:57;;;;;;;10.65;4.70;;;4.60;66.30;;;;;;5116716;28;20020;-68
2022/03/18 03:09:06;;;;;;;8.82;4.75;;;4.40;66.80;;;;;;5116791;28;20047;-65
2022/03/18 03:11:33;;;;;;;8.88;4.20;;;4.50;66.30;;;;;;5116435;28;20107;-68
2022/03/18 03:14:00;;;;;;;9.68;5.03;;;4.60;66.20;;;;;;5116528;28;20157;-68
2022/03/18 03:16:26;;;;;;;9.93;4.43;;;4.60;66.10;;;;;;5116411;28;20028;-68
2022/03/18 03:18:52;;;;;;;8.55;4.68;;;4.40;66.00;;;;;;5116460;28;20126;-65
2022/03/18 03:21:17;;;;;;;11.07;4.78;;;4.40;67.10;;;;;;5116399;28;20024;-66
2022/03/18 03:23:43;;;;;;;8.85;4.22;;;4.50;66.10;;;;;;5116246;28;20032;-68
2022/03/18 03:26:09;;;;;;;7.50;4.70;;;4.60;65.90;;;;;;5116301;28;20032;-65
2022/03/18 03:28:35;;;;;;;8.88;4.57;;;4.60;65.60;;;;;;5116245;28;20035;-65
2022/03/18 03:31:00;;;;;;;8.98;4.53;;;4.70;65.40;;;;;;5116207;28;20035;-66
2022/03/18 03:33:26;;;;;;;10.50;4.30;;;4.70;65.30;;;;;;5114762;28;20115;-68
2022/03/18 03:35:53;;;;;;;7.43;4.57;;;4.70;65.30;;;;;;5116017;28;20027;-68
2022/03/18 03:38:21;;;;;;;9.30;4.95;;;4.60;65.40;;;;;;5116074;28;20054;-68
2022/03/18 03:40:48;;;;;;;10.70;4.63;;;4.60;65.30;;;;;;5116046;28;20039;-68
2022/03/18 03:43:14;;;;;;;9.40;4.80;;;4.50;65.60;;;;;;5115987;28;20024;-68
2022/03/18 03:45:40;;;;;;;10.32;4.70;;;4.30;65.90;;;;;;5115932;28;20058;-68
2022/03/18 03:48:06;;;;;;;8.70;4.70;;;4.00;66.40;;;;;;5115867;28;20031;-67
2022/03/18 03:50:33;;;;;;;8.50;4.28;;;3.90;67.20;;;;;;5115828;28;20107;-68
2022/03/18 03:53:00;;;;;;;8.05;4.55;;;3.90;67.40;;;;;;5115789;28;20051;-68
2022/03/18 03:55:26;;;;;;;10.25;4.60;;;4.10;67.20;;;;;;5115731;28;20020;-68
2022/03/18 03:57:52;;;;;;;10.02;4.93;;;4.10;67.10;;;;;;5115692;28;20095;-68
2022/03/18 04:00:18;;;;;;;8.10;4.32;;;4.20;66.90;;;;;;5115627;28;20035;-68
2022/03/18 04:02:43;;;;;;;9.05;4.38;;;4.40;66.60;;;;;;5115607;28;20025;-68
2022/03/18 04:05:10;;;;;;;11.43;5.22;;;4.40;66.30;;;;;;5115680;28;20028;-68
2022/03/18 04:07:40;;;;;;;7.63;4.68;;;4.50;66.20;;;;;;5115509;28;20028;-68
2022/03/18 04:10:09;;;;;;;7.75;4.40;;;4.30;66.30;;;;;;5115228;28;20059;-68
2022/03/18 04:12:35;;;;;;;10.65;4.90;;;4.30;66.50;;;;;;5115398;28;20028;-68
2022/03/18 04:15:02;;;;;;;9.60;5.00;;;4.30;66.60;;;;;;5115309;28;20048;-68
2022/03/18 04:17:39;;;;;;;10.45;4.90;;;4.40;66.50;;;;;;5115334;28;20046;-68
2022/03/18 04:20:06;;;;;;;8.90;4.78;;;4.40;66.40;;;;;;5115330;28;20099;-68
2022/03/18 04:22:31;;;;;;;9.88;4.93;;;4.40;66.30;;;;;;5115209;28;20024;-68
2022/03/18 04:24:57;;;;;;;12.45;5.00;;;4.40;66.30;;;;;;5115110;28;20036;-68
2022/03/18 04:27:23;;;;;;;9.73;4.85;;;4.40;66.20;;;;;;5115215;28;20035;-68
2022/03/18 04:29:49;;;;;;;9.73;4.95;;;4.40;66.00;;;;;;5114822;28;20052;-66
2022/03/18 04:32:14;;;;;;;15.25;5.03;;;4.20;66.10;;;;;;5115048;28;20028;-65
2022/03/18 04:34:40;;;;;;;14.13;5.28;;;3.90;66.20;;;;;;5114898;28;20036;-68
2022/03/18 04:37:06;;;;;;;7.63;4.55;;;3.90;66.80;;;;;;5114938;28;20050;-68
2022/03/18 04:39:31;;;;;;;9.95;4.45;;;4.00;66.90;;;;;;5114852;28;20024;-68
2022/03/18 04:41:57;;;;;;;10.82;4.75;;;4.00;67.00;;;;;;5114819;28;20043;-68
2022/03/18 04:44:22;;;;;;;11.88;5.28;;;4.10;67.00;;;;;;5114355;28;20024;-68
2022/03/18 04:46:48;;;;;;;6.55;4.43;;;4.10;66.90;;;;;;5114716;28;20040;-68
2022/03/18 04:49:14;;;;;;;8.05;4.63;;;4.00;67.10;;;;;;5114691;28;20024;-68
2022/03/18 04:51:40;;;;;;;7.25;4.60;;;3.80;67.10;;;;;;5114643;28;20031;-68
2022/03/18 04:54:06;;;;;;;10.57;4.50;;;3.50;67.90;;;;;;5114604;28;20052;-68
2022/03/18 04:59:18;;;;;;;8.90;4.32;;;3.50;69.10;;;;;;5114587;28;20066;-68
2022/03/18 05:01:44;;;;;;;10.10;4.78;;;3.60;69.10;;;;;;5114437;28;20024;-68
2022/03/18 05:04:09;;;;;;;6.22;4.15;;;3.50;69.10;;;;;;5114437;28;20024;-68
2022/03/18 05:06:35;;;;;;;9.95;4.82;;;3.60;69.10;;;;;;5114357;28;20017;-68
2022/03/18 05:09:01;;;;;;;8.75;4.75;;;3.60;68.90;;;;;;5114306;28;20032;-68
2022/03/18 05:11:26;;;;;;;10.13;5.20;;;3.70;68.80;;;;;;5114144;28;20055;-68
2022/03/18 05:13:52;;;;;;;9.18;5.05;;;3.70;68.60;;;;;;5114191;28;20043;-68
2022/03/18 05:16:18;;;;;;;7.82;4.43;;;3.70;68.80;;;;;;5114182;28;20024;-68
2022/03/18 05:18:43;;;;;;;11.93;4.80;;;3.60;68.40;;;;;;5114160;28;20035;-68
2022/03/18 05:21:09;;;;;;;8.82;4.55;;;3.70;68.20;;;;;;5114081;28;20032;-68
2022/03/18 05:23:34;;;;;;;9.98;4.70;;;3.80;68.00;;;;;;5114095;28;20016;-68
2022/03/18 05:26:00;;;;;;;8.23;4.35;;;3.90;67.80;;;;;;5113959;28;20111;-68
2022/03/18 05:28:26;;;;;;;9.35;4.68;;;3.90;68.00;;;;;;5113992;28;20043;-68
2022/03/18 05:30:52;;;;;;;9.60;4.72;;;3.90;68.20;;;;;;5113894;28;20126;-68
2022/03/18 05:33:19;;;;;;;7.63;4.38;;;3.90;68.40;;;;;;5113870;28;20032;-68
2022/03/18 05:35:45;;;;;;;10.85;4.45;;;3.70;68.80;;;;;;5113963;28;20066;-68
2022/03/18 05:38:11;;;;;;;7.28;4.35;;;3.60;69.00;;;;;;5113836;28;20024;-68
2022/03/18 05:40:36;;;;;;;12.60;4.22;;;3.70;69.50;;;;;;5113787;28;20039;-68
2022/03/18 05:43:02;;;;;;;10.05;4.47;;;3.60;69.60;;;;;;5113722;28;20028;-68
2022/03/18 05:45:28;;;;;;;9.45;4.60;;;3.70;69.50;;;;;;5113679;28;20040;-68
2022/03/18 05:47:53;;;;;;;9.23;4.60;;;3.60;70.00;;;;;;5113649;28;20028;-68
2022/03/18 05:50:19;;;;;;;10.82;4.47;;;3.70;69.20;;;;;;5113605;28;20058;-68
2022/03/18 05:52:45;;;;;;;9.13;4.25;;;3.70;68.90;;;;;;5113732;28;20020;-68
2022/03/18 05:55:11;;;;;;;12.52;4.72;;;3.60;68.60;;;;;;5113402;28;20170;-68
2022/03/18 05:57:37;;;;;;;7.30;4.70;;;3.40;69.80;;;;;;5112824;28;20024;-68
2022/03/18 06:00:04;;;;;;;9.75;4.82;;;3.10;70.20;;;;;;5113428;28;20050;-68
2022/03/18 06:02:30;;;;;;;10.63;4.57;;;3.00;70.70;;;;;;5113462;28;20028;-68
2022/03/18 06:04:55;;;;;;;9.68;4.82;;;3.10;71.00;;;;;;5113434;28;20028;-68
2022/03/18 06:07:21;;;;;;;8.45;4.65;;;3.30;71.00;;;;;;5095475;28;20035;-68
2022/03/18 06:12:31;;;;;;;8.13;4.28;;;3.30;70.90;;;;;;5113439;28;20092;-68
2022/03/18 06:14:56;;;;;;;7.15;4.65;;;3.40;70.90;;;;;;5113291;28;20032;-68
2022/03/18 06:17:22;;;;;;;10.57;4.55;;;3.50;70.60;;;;;;5113280;28;20031;-68
2022/03/18 06:19:48;;;;;;;7.85;4.32;;;3.50;70.40;;;;;;5113328;28;20441;-68
2022/03/18 06:22:13;;;;;;;8.65;4.60;;;3.70;70.20;;;;;;5113292;28;20032;-68
2022/03/18 06:24:40;;;;;;;11.95;4.45;;;3.80;70.10;;;;;;5113209;28;20040;-68
2022/03/18 06:27:05;;;;;;;7.60;4.03;;;3.70;70.20;;;;;;5113383;28;20028;-68
2022/03/18 06:29:31;;;;;;;8.40;4.40;;;3.70;70.10;;;;;;5113208;28;20050;-68
2022/03/18 06:31:59;;;;;;;8.25;4.35;;;3.80;69.80;;;;;;5113197;28;20092;-67
2022/03/18 06:34:24;;;;;;;8.80;4.60;;;3.70;69.60;;;;;;5113079;28;20020;-68
2022/03/18 06:36:51;;;;;;;10.27;4.95;;;3.60;70.00;;;;;;5113130;28;20025;-68
2022/03/18 06:39:19;;;;;;;10.30;4.68;;;3.70;70.20;;;;;;5113059;28;20028;-68
2022/03/18 06:41:46;;;;;;;12.77;5.18;;;3.80;70.00;;;;;;5113111;28;20043;-67
2022/03/18 06:44:12;;;;;;;11.90;4.43;;;3.80;69.80;;;;;;5113050;28;20024;-68
2022/03/18 06:46:38;;;;;;;10.65;5.35;;;3.70;70.00;;;;;;5113013;28;20024;-68
2022/03/18 06:49:04;;;;;;;11.18;5.05;;;3.70;71.20;;;;;;5113014;28;20032;-68
2022/03/18 06:51:30;;;;;;;10.35;5.10;;;3.60;71.50;;;;;;5112954;28;20032;-68
2022/03/18 06:53:56;;;;;;;14.07;5.28;;;3.70;71.60;;;;;;5112927;28;20039;-68
2022/03/18 06:56:22;;;;;;;10.65;5.10;;;3.70;71.60;;;;;;5112868;28;20036;-66
2022/03/18 06:58:48;;;;;;;12.23;5.43;;;3.90;71.50;;;;;;5112910;28;20057;-66
2022/03/18 07:01:14;;;;;;;11.85;5.85;;;3.90;71.40;;;;;;5112872;28;20042;-66
2022/03/18 07:03:40;;;;;;;13.23;7.18;;;4.00;71.60;;;;;;5112902;28;20020;-66
2022/03/18 07:06:06;;;;;;;11.52;6.25;;;4.10;71.80;;;;;;5112864;28;20024;-66
2022/03/18 07:08:33;;;;;;;15.50;6.38;;;4.10;72.00;;;;;;5115344;28;20382;-66
2022/03/18 07:10:59;;;;;;;15.43;6.93;;;4.10;72.20;;;;;;5116434;28;20074;-66
2022/03/18 07:13:26;;;;;;;16.63;7.40;;;4.20;72.40;;;;;;5116641;28;20059;-66
2022/03/18 07:15:52;;;;;;;13.88;6.80;;;4.30;72.60;;;;;;5116442;28;20028;-66
2022/03/18 07:18:17;;;;;;;12.57;6.88;;;4.40;72.40;;;;;;5116504;28;20036;-66
2022/03/18 07:20:43;;;;;;;13.15;6.57;;;4.40;72.40;;;;;;5116465;28;20084;-66
2022/03/18 07:23:12;;;;;;;16.95;7.07;;;4.60;72.50;;;;;;5116492;28;20016;-66
2022/03/18 07:25:40;;;;;;;15.45;6.68;;;4.60;72.70;;;;;;5116272;28;20052;-66
2022/03/18 07:28:10;;;;;;;14.48;6.85;;;4.70;72.90;;;;;;5116289;28;20028;-66
2022/03/18 07:30:37;;;;;;;14.35;7.95;;;4.80;72.90;;;;;;5116258;28;20052;-66
2022/03/18 07:33:03;;;;;;;10.85;7.43;;;4.90;73.00;;;;;;5116195;28;20050;-66
2022/03/18 07:35:29;;;;;;;13.65;7.43;;;5.00;73.20;;;;;;5116040;28;20035;-66
2022/03/18 07:37:55;;;;;;;14.35;7.38;;;5.10;73.30;;;;;;5116059;28;20035;-66
2022/03/18 07:40:21;;;;;;;14.23;8.23;;;5.20;73.50;;;;;;5115985;28;20028;-66
2022/03/18 07:42:49;;;;;;;15.90;8.05;;;5.30;73.60;;;;;;5116121;28;20035;-66
2022/03/18 07:45:20;;;;;;;14.68;8.07;;;5.40;74.90;;;;;;5115964;28;20056;-66
2022/03/18 07:47:49;;;;;;;17.77;8.15;;;5.50;74.80;;;;;;5098211;28;20106;-66
2022/03/18 07:50:19;;;;;;;13.85;7.20;;;5.60;74.60;;;;;;5115869;28;20062;-66
2022/03/18 07:52:56;;;;;;;18.00;7.97;;;5.70;74.60;;;;;;5116000;28;20020;-66
2022/03/18 07:55:24;;;;;;;17.38;8.10;;;5.80;75.50;;;;;;5115777;28;20028;-66
2022/03/18 07:57:50;;;;;;;10.07;6.50;;;5.90;76.60;;;;;;5115658;28;20035;-66
2022/03/18 08:00:16;;;;;;;16.65;7.78;;;6.00;75.80;;;;;;5115598;28;20531;-66
2022/03/18 08:02:44;;;;;;;13.38;6.40;;;6.00;75.80;;;;;;5115622;28;20030;-66
2022/03/18 08:05:10;;;;;;;13.85;7.00;;;6.10;75.80;;;;;;5115499;28;20410;-66
2022/03/18 08:07:37;;;;;;;12.27;6.35;;;6.20;75.50;;;;;;5115564;28;20036;-66
2022/03/18 08:10:04;;;;;;;10.98;6.38;;;6.20;77.00;;;;;;5115324;28;20074;-66
2022/03/18 08:12:31;;;;;;;12.95;7.20;;;6.40;76.60;;;;;;5115422;28;20032;-66
2022/03/18 08:15:03;;;;;;;11.90;6.20;;;6.50;76.30;;;;;;5115447;28;20084;-66
2022/03/18 08:17:29;;;;;;;10.30;5.90;;;6.50;77.00;;;;;;5115380;28;20070;-66
2022/03/18 08:19:55;;;;;;;13.80;5.75;;;6.60;77.50;;;;;;5114498;28;20032;-66
2022/03/18 08:22:21;;;;;;;10.25;5.85;;;6.70;76.80;;;;;;5115214;28;20016;-66
2022/03/18 08:24:48;;;;;;;13.35;6.38;;;6.80;77.20;;;;;;5115123;28;20028;-66
2022/03/18 08:27:14;;;;;;;19.42;5.97;;;6.90;78.10;;;;;;5115126;28;20024;-66
2022/03/18 08:29:40;;;;;;;11.55;6.13;;;6.90;77.70;;;;;;5097448;28;20050;-66
2022/03/18 08:32:07;;;;;;;11.52;6.05;;;7.00;77.50;;;;;;5115034;28;20032;-66
2022/03/18 08:34:33;;;;;;;14.98;6.43;;;7.20;77.00;;;;;;5115044;28;20035;-66
2022/03/18 08:36:59;;;;;;;14.30;7.13;;;7.40;77.10;;;;;;5080354;28;20020;-66
2022/03/18 08:39:25;;;;;;;16.85;6.20;;;7.50;76.70;;;;;;5114912;28;20038;-66
2022/03/18 08:41:51;;;;;;;16.25;5.88;;;7.70;76.00;;;;;;5114945;28;20041;-66
2022/03/18 08:44:19;;;;;;;13.88;5.57;;;7.90;75.50;;;;;;5114804;28;20020;-66
2022/03/18 08:46:46;;;;;;;11.68;5.70;;;8.10;75.50;;;;;;5114799;28;20020;-66
2022/03/18 08:49:12;;;;;;;10.75;5.18;;;8.30;75.00;;;;;;5114781;28;20039;-66
2022/03/18 08:51:38;;;;;;;10.18;4.80;;;8.40;74.50;;;;;;5114637;28;20495;-66
2022/03/18 08:54:04;;;;;;;9.30;4.30;;;8.60;74.10;;;;;;5114572;28;20039;-66
2022/03/18 08:56:31;;;;;;;10.30;4.32;;;8.70;73.30;;;;;;5114517;28;20020;-66
2022/03/18 08:58:57;;;;;;;13.00;4.80;;;8.90;73.00;;;;;;5114527;28;20034;-66
2022/03/18 09:01:23;;;;;;;11.95;4.28;;;9.00;72.50;;;;;;5114498;28;20020;-66
2022/03/18 09:03:48;;;;;;;13.95;4.45;;;9.10;71.80;;;;;;5114544;28;20024;-66
2022/03/18 09:06:14;;;;;;;15.52;4.47;;;9.30;71.00;;;;;;5114342;28;20119;-66
2022/03/18 09:08:41;;;;;;;7.07;4.00;;;9.40;70.70;;;;;;5114310;28;20020;-66
2022/03/18 09:11:07;;;;;;;12.68;4.43;;;9.60;70.40;;;;;;5114129;28;20044;-66
2022/03/18 09:13:35;;;;;;;10.50;4.35;;;9.70;69.20;;;;;;5114233;28;20080;-66
2022/03/18 09:16:02;;;;;;;12.60;4.20;;;9.80;69.50;;;;;;5114148;28;20028;-66
2022/03/18 09:18:27;;;;;;;15.75;4.45;;;10.00;67.10;;;;;;5114108;28;20024;-66
2022/03/18 09:20:53;;;;;;;8.10;4.32;;;10.00;66.50;;;;;;5114116;28;20012;-66
2022/03/18 09:23:19;;;;;;;8.80;4.22;;;10.10;67.60;;;;;;5114082;28;20028;-66
2022/03/18 09:25:44;;;;;;;11.27;3.78;;;10.10;66.60;;;;;;5113973;28;20035;-66
2022/03/18 09:28:10;;;;;;;9.88;3.78;;;10.30;68.00;;;;;;5113988;28;20486;-66
2022/03/18 09:30:35;;;;;;;11.48;3.55;;;10.50;66.70;;;;;;5113924;28;20036;-66
2022/03/18 09:33:02;;;;;;;11.05;3.72;;;10.50;63.90;;;;;;5113974;28;20054;-66
2022/03/18 09:35:27;;;;;;;7.20;3.45;;;10.50;64.10;;;;;;5113986;28;20040;-66
2022/03/18 09:37:53;;;;;;;10.18;3.42;;;10.60;64.90;;;;;;5113956;28;20032;-66
2022/03/18 09:40:19;;;;;;;10.15;3.25;;;10.80;64.40;;;;;;5113931;28;20039;-66
2022/03/18 09:43:03;;;;;;;7.85;3.10;;;11.00;63.70;;;;;;5113777;28;20020;-66
2022/03/18 09:45:31;;;;;;;8.20;3.22;;;11.10;63.30;;;;;;5113712;28;20036;-66
2022/03/18 09:48:03;;;;;;;10.10;3.38;;;11.30;63.00;;;;;;5113674;28;20016;-66
2022/03/18 09:50:29;;;;;;;6.45;2.53;;;11.40;60.50;;;;;;5113856;28;20026;-66
2022/03/18 09:52:55;;;;;;;8.27;2.60;;;11.50;59.90;;;;;;5113732;28;20020;-66
2022/03/18 09:55:21;;;;;;;4.57;2.72;;;11.60;56.90;;;;;;5113518;28;20032;-66
2022/03/18 09:57:47;;;;;;;7.43;3.22;;;11.60;58.30;;;;;;5113541;28;20382;-66
2022/03/18 10:00:13;;;;;;;9.10;3.00;;;11.80;59.40;;;;;;5113526;28;20035;-66
2022/03/18 10:02:39;;;;;;;6.85;2.47;;;11.90;57.20;;;;;;5113556;28;20033;-66
2022/03/18 10:05:14;;;;;;;6.82;2.35;;;11.90;56.90;;;;;;5113461;28;20467;-66
2022/03/18 10:07:53;;;;;;;5.20;2.58;;;12.00;51.70;;;;;;5113479;28;20020;-66
2022/03/18 10:10:20;;;;;;;5.82;2.88;;;12.00;54.90;;;;;;5113281;28;20101;-66
2022/03/18 10:12:48;;;;;;;9.82;3.47;;;12.10;56.50;;;;;;5113404;28;20437;-66
2022/03/18 10:15:18;;;;;;;6.15;3.10;;;12.20;55.60;;;;;;5113308;28;20031;-66
2022/03/18 10:17:49;;;;;;;6.05;2.30;;;12.30;53.60;;;;;;5113385;28;20024;-66
2022/03/18 10:20:39;;;;;;;4.88;2.35;;;12.30;54.10;;;;;;5113380;28;20024;-66
2022/03/18 10:23:25;;;;;;;4.10;2.20;;;12.50;54.20;;;;;;5113383;28;20020;-66
2022/03/18 10:25:55;;;;;;;5.07;2.47;;;12.70;54.00;;;;;;5112881;28;20039;-66
2022/03/18 10:28:37;;;;;;;6.50;2.42;;;12.80;54.20;;;;;;5113266;28;20036;-66
2022/03/18 10:31:22;;;;;;;7.28;2.80;;;13.00;52.80;;;;;;5113297;28;20024;-66
2022/03/18 10:39:28;;;;;;;7.47;2.53;;;13.30;54.10;;;;;;5113363;28;20151;-66
2022/03/18 10:41:55;;;;;;;6.63;2.53;;;13.40;52.90;;;;;;5113214;28;20024;-66
2022/03/18 10:44:21;;;;;;;4.78;2.30;;;13.50;53.70;;;;;;5117033;28;20020;-66
2022/03/18 10:46:53;;;;;;;6.63;2.65;;;13.60;53.30;;;;;;5117102;28;20020;-66
2022/03/18 10:49:22;;;;;;;5.72;3.30;;;13.70;53.00;;;;;;5099088;28;20020;-66
2022/03/18 10:51:48;;;;;;;9.43;2.88;;;13.80;49.90;;;;;;5117036;28;20020;-66
2022/03/18 10:54:17;;;;;;;5.88;2.38;;;13.60;49.80;;;;;;5116969;28;20028;-66
2022/03/18 10:56:55;;;;;;;7.72;2.45;;;13.60;49.60;;;;;;5116852;28;20028;-66
2022/03/18 10:59:22;;;;;;;6.53;2.40;;;13.70;50.60;;;;;;5116772;28;20046;-66
2022/03/18 11:01:50;;;;;;;5.03;2.40;;;13.80;50.60;;;;;;5116598;28;20089;-66
2022/03/18 11:04:16;;;;;;;7.05;2.67;;;14.00;50.30;;;;;;5116777;28;20024;-66
2022/03/18 11:07:29;;;;;;;6.75;2.63;;;14.10;49.70;;;;;;5098714;28;20017;-66
2022/03/18 11:11:06;;;;;;;6.15;2.00;;;14.20;49.50;;;;;;5115981;28;20067;-66
2022/03/18 11:12:23;;;;;;;6.47;2.03;;;14.40;49.60;;;;;;5116522;28;20048;-66
2022/03/18 11:14:54;;;;;;;5.07;2.30;;;14.60;48.90;;;;;;5116510;28;20035;-66
2022/03/18 11:17:21;;;;;;;7.18;2.50;;;14.70;49.20;;;;;;5116556;28;20046;-66
2022/03/18 11:19:47;;;;;;;5.45;2.17;;;14.80;48.20;;;;;;5116477;28;20076;-66
2022/03/18 11:22:15;;;;;;;6.93;1.90;;;14.80;46.90;;;;;;5116457;28;20024;-66
2022/03/18 11:24:41;;;;;;;5.07;2.20;;;14.80;46.70;;;;;;5116308;28;20019;-66
2022/03/18 11:27:07;;;;;;;5.80;2.10;;;14.80;44.50;;;;;;5116405;28;20025;-66
2022/03/18 11:29:34;;;;;;;5.97;2.10;;;14.70;44.90;;;;;;5116452;28;20054;-66
2022/03/18 11:32:12;;;;;;;4.10;1.80;;;14.70;45.20;;;;;;5116214;28;20024;-66
2022/03/18 11:34:58;;;;;;;9.40;2.33;;;14.70;46.70;;;;;;5116153;28;20024;-66
2022/03/18 11:37:29;;;;;;;5.18;1.77;;;14.90;45.30;;;;;;5116145;28;20016;-66
2022/03/18 11:40:20;;;;;;;4.78;2.20;;;14.90;45.20;;;;;;5116265;28;20024;-66
2022/03/18 11:42:46;;;;;;;4.20;2.00;;;14.80;44.20;;;;;;5116158;28;20024;-66
2022/03/18 11:45:37;;;;;;;11.48;2.72;;;14.80;46.50;;;;;;5115998;28;20020;-66
2022/03/18 11:48:36;;;;;;;5.25;2.20;;;14.90;46.20;;;;;;5116060;28;20024;-66
2022/03/18 11:51:31;;;;;;;3.70;2.00;;;15.10;45.50;;;;;;5116000;28;20020;-66
2022/03/18 11:54:13;;;;;;;5.88;2.47;;;15.20;45.70;;;;;;5114669;28;20028;-66
2022/03/18 11:56:53;;;;;;;7.72;2.30;;;15.30;45.90;;;;;;5115667;28;20028;-66
2022/03/18 11:59:24;;;;;;;5.93;2.80;;;15.50;44.80;;;;;;5115763;28;20040;-66
2022/03/18 12:01:54;;;;;;;7.33;2.10;;;15.50;43.90;;;;;;5115714;28;20024;-66
2022/03/18 12:04:41;;;;;;;4.25;2.00;;;15.50;44.80;;;;;;5115688;28;20032;-66
2022/03/18 12:07:13;;;;;;;7.55;2.90;;;15.60;45.10;;;;;;5115590;28;20090;-66
2022/03/18 12:10:09;;;;;;;3.75;2.20;;;15.60;44.90;;;;;;5115576;28;20024;-66
2022/03/18 12:12:42;;;;;;;5.93;2.53;;;15.80;44.80;;;;;;5115474;28;20036;-66
2022/03/18 12:15:12;;;;;;;8.13;2.90;;;15.90;44.30;;;;;;5115379;28;20032;-66
2022/03/18 12:17:43;;;;;;;3.92;2.25;;;15.90;44.50;;;;;;5115655;28;20070;-66
2022/03/18 12:20:32;;;;;;;5.22;2.40;;;16.10;44.60;;;;;;5115442;28;20024;-66
2022/03/18 12:23:03;;;;;;;4.32;2.60;;;16.20;44.40;;;;;;5115244;28;20029;-66
2022/03/18 12:25:29;;;;;;;6.27;2.97;;;16.30;44.00;;;;;;5115166;28;20024;-66
2022/03/18 12:27:56;;;;;;;6.57;2.83;;;16.40;43.80;;;;;;5115154;28;20114;-66
2022/03/18 12:30:31;;;;;;;4.25;2.58;;;16.50;43.40;;;;;;5115207;28;20028;-66
2022/03/18 12:33:00;;;;;;;4.70;2.55;;;16.50;43.60;;;;;;5115092;28;20466;-66
2022/03/18 12:35:35;;;;;;;7.50;2.75;;;16.60;43.60;;;;;;5114976;28;20024;-66
2022/03/18 12:38:04;;;;;;;8.45;3.30;;;16.70;43.90;;;;;;5115000;28;20032;-66
2022/03/18 12:40:30;;;;;;;4.95;3.00;;;16.60;43.50;;;;;;5114912;28;20031;-66
2022/03/18 12:42:58;;;;;;;7.00;2.70;;;16.70;43.80;;;;;;5114848;28;20023;-66
2022/03/18 12:45:38;;;;;;;5.03;2.42;;;16.80;43.60;;;;;;5114820;28;20028;-66
2022/03/18 12:48:09;;;;;;;6.28;2.92;;;16.90;43.00;;;;;;5114724;28;20035;-66
2022/03/18 12:50:50;;;;;;;6.30;2.72;;;16.80;43.20;;;;;;5114789;28;20024;-66
2022/03/18 12:53:22;;;;;;;9.52;2.95;;;16.90;43.30;;;;;;5114740;28;20035;-66
2022/03/18 12:55:50;;;;;;;;;;;16.80;43.40;;;;;;5115114;28;20063;-66
2022/03/18 12:58:17;;;;;;;6.55;2.63;;;16.90;43.80;;;;;;5114697;28;19904;-66
2022/03/18 13:00:54;;;;;;;4.22;2.67;;;16.80;43.40;;;;;;5114544;28;20024;-66
2022/03/18 13:03:28;;;;;;;7.05;2.45;;;16.90;43.50;;;;;;5114513;28;20012;-66
2022/03/18 13:06:03;;;;;;;6.07;2.92;;;17.00;43.30;;;;;;5114137;28;20352;-66
2022/03/18 13:08:34;;;;;;;7.43;2.63;;;17.10;43.10;;;;;;5114375;28;20027;-66
2022/03/18 13:11:01;;;;;;;8.10;3.22;;;17.00;42.60;;;;;;5114059;28;20421;-66